createdAt,value
2017-11-24T00:00:41.015Z,11.99
2017-11-24T00:01:51.003Z,11.95
2017-11-24T00:03:00.980Z,11.93
2017-11-24T00:04:10.952Z,11.85
2017-11-24T00:05:20.665Z,11.89
2017-11-24T00:06:30.653Z,11.81
2017-11-24T00:07:40.626Z,11.77
2017-11-24T00:08:50.601Z,11.73
2017-11-24T00:10:00.325Z,11.73
2017-11-24T00:11:10.029Z,11.71
2017-11-24T00:12:19.742Z,11.68
2017-11-24T00:13:29.187Z,11.6
2017-11-24T00:14:39.158Z,11.55
2017-11-24T00:15:49.148Z,11.53
2017-11-24T00:16:58.862Z,11.52
2017-11-24T00:18:08.568Z,11.43
2017-11-24T00:19:18.303Z,11.48
2017-11-24T00:20:27.747Z,11.43
2017-11-24T00:21:37.725Z,11.45
2017-11-24T00:22:47.689Z,11.23
2017-11-24T00:23:57.403Z,11.22
2017-11-24T00:25:07.367Z,11.3
2017-11-24T00:26:17.101Z,11.33
2017-11-24T00:27:27.084Z,11.27
2017-11-24T00:28:37.067Z,11.25
2017-11-24T00:29:46.522Z,11.25
2017-11-24T00:30:56.502Z,11.22
2017-11-24T00:32:05.949Z,11.25
2017-11-24T00:33:15.950Z,11.23
2017-11-24T00:34:25.704Z,11.18
2017-11-24T00:35:35.418Z,11.13
2017-11-24T00:36:45.386Z,11.12
2017-11-24T00:37:55.361Z,11.13
2017-11-24T00:39:04.806Z,11.04
2017-11-24T00:40:14.264Z,11.05
2017-11-24T00:41:23.969Z,11.07
2017-11-24T00:42:33.415Z,10.98
2017-11-24T00:43:43.390Z,11.01
2017-11-24T00:44:52.847Z,11.02
2017-11-24T00:46:02.826Z,11
2017-11-24T00:47:12.787Z,10.95
2017-11-24T00:48:22.774Z,10.97
2017-11-24T00:49:32.795Z,10.87
2017-11-24T00:50:41.987Z,10.94
2017-11-24T00:51:51.956Z,11
2017-11-24T00:53:01.929Z,10.9
2017-11-24T00:54:11.901Z,10.92
2017-11-24T00:55:21.603Z,11
2017-11-24T00:56:31.580Z,10.95
2017-11-24T00:57:41.566Z,11.01
2017-11-24T00:58:51.554Z,10.98
2017-11-24T01:00:01.004Z,10.97
2017-11-24T01:01:10.721Z,10.98
2017-11-24T01:02:20.706Z,10.92
2017-11-24T01:03:30.707Z,10.98
2017-11-24T01:04:40.689Z,10.95
2017-11-24T01:05:50.130Z,10.98
2017-11-24T01:07:00.105Z,10.9
2017-11-24T01:08:09.808Z,10.94
2017-11-24T01:09:19.818Z,10.94
2017-11-24T01:10:29.539Z,10.95
2017-11-24T01:11:39.526Z,10.95
2017-11-24T01:12:48.979Z,11.01
2017-11-24T01:13:58.673Z,10.92
2017-11-24T01:15:07.853Z,11
2017-11-24T01:16:17.557Z,11.01
2017-11-24T01:17:26.999Z,10.97
2017-11-24T01:18:36.443Z,10.95
2017-11-24T01:19:46.424Z,11.08
2017-11-24T01:20:56.156Z,10.98
2017-11-24T01:22:05.619Z,11.02
2017-11-24T01:23:15.594Z,11.04
2017-11-24T01:24:25.595Z,11.1
2017-11-24T01:25:35.298Z,11.04
2017-11-24T01:26:45.257Z,10.9
2017-11-24T01:27:54.968Z,11.01
2017-11-24T01:29:04.415Z,10.97
2017-11-24T01:30:14.382Z,10.94
2017-11-24T01:31:24.093Z,10.94
2017-11-24T01:32:33.020Z,10.92
2017-11-24T01:33:42.228Z,11
2017-11-24T01:34:51.675Z,11.01
2017-11-24T01:36:01.386Z,11
2017-11-24T01:37:10.846Z,10.98
2017-11-24T01:38:20.560Z,11.1
2017-11-24T01:39:30.007Z,11.07
2017-11-24T01:40:39.181Z,11.02
2017-11-24T01:41:48.897Z,11
2017-11-24T01:42:58.608Z,10.97
2017-11-24T01:44:08.058Z,10.95
2017-11-24T01:45:18.041Z,11.01
2017-11-24T01:46:28.034Z,10.94
2017-11-24T01:47:38.054Z,10.95
2017-11-24T01:48:48.079Z,10.94
2017-11-24T01:49:57.803Z,10.97
2017-11-24T01:51:07.778Z,10.97
2017-11-24T01:52:17.482Z,11.04
2017-11-24T01:53:27.482Z,10.87
2017-11-24T01:54:36.691Z,11.01
2017-11-24T01:55:46.176Z,11.02
2017-11-24T01:56:56.155Z,10.98
2017-11-24T01:58:05.892Z,10.95
2017-11-24T01:59:15.614Z,10.98
2017-11-24T02:00:25.363Z,10.95
2017-11-24T02:01:35.079Z,11.01
2017-11-24T02:02:44.786Z,11.04
2017-11-24T02:03:54.753Z,11.07
2017-11-24T02:05:04.200Z,11.01
2017-11-24T02:06:13.920Z,10.97
2017-11-24T02:07:23.626Z,11
2017-11-24T02:08:33.074Z,11
2017-11-24T02:09:43.066Z,11.01
2017-11-24T02:10:53.067Z,11
2017-11-24T02:13:12.273Z,10.92
2017-11-24T02:14:22.273Z,10.95
2017-11-24T02:15:31.973Z,10.94
2017-11-24T02:16:41.162Z,11
2017-11-24T02:17:50.894Z,10.9
2017-11-24T02:19:00.878Z,11.02
2017-11-24T02:20:10.335Z,11.04
2017-11-24T02:21:20.044Z,11.08
2017-11-24T02:22:29.789Z,11
2017-11-24T02:23:39.506Z,11.01
2017-11-24T02:24:49.222Z,11
2017-11-24T02:25:58.696Z,11
2017-11-24T02:27:08.421Z,11
2017-11-24T02:28:18.138Z,11.02
2017-11-24T02:29:28.113Z,11.01
2017-11-24T02:30:38.087Z,10.94
2017-11-24T02:31:48.062Z,11.01
2017-11-24T02:32:57.789Z,10.98
2017-11-24T02:34:07.805Z,10.9
2017-11-24T02:35:17.800Z,10.87
2017-11-24T02:36:27.773Z,10.87
2017-11-24T02:37:37.494Z,10.95
2017-11-24T02:38:47.455Z,10.97
2017-11-24T02:39:57.194Z,10.9
2017-11-24T02:41:06.904Z,11
2017-11-24T02:42:16.884Z,10.98
2017-11-24T02:43:26.341Z,10.98
2017-11-24T02:44:36.323Z,10.9
2017-11-24T02:45:46.052Z,10.98
2017-11-24T02:46:56.020Z,10.9
2017-11-24T02:48:05.463Z,10.94
2017-11-24T02:49:14.906Z,10.9
2017-11-24T02:50:24.621Z,10.92
2017-11-24T02:51:34.612Z,10.98
2017-11-24T02:52:44.317Z,11.01
2017-11-24T02:53:53.777Z,11.07
2017-11-24T02:55:03.785Z,10.97
2017-11-24T02:56:13.240Z,10.9
2017-11-24T02:57:23.215Z,11.08
2017-11-24T02:58:32.928Z,11
2017-11-24T02:59:42.118Z,10.86
2017-11-24T03:00:52.088Z,10.97
2017-11-24T03:02:01.788Z,11.12
2017-11-24T03:03:11.758Z,11.07
2017-11-24T03:04:21.754Z,11.07
2017-11-24T03:05:31.716Z,11.07
2017-11-24T03:06:41.679Z,11.05
2017-11-24T03:07:51.675Z,10.95
2017-11-24T03:09:01.649Z,10.95
2017-11-24T03:10:11.356Z,11.1
2017-11-24T03:11:21.318Z,11.05
2017-11-24T03:12:31.044Z,11.08
2017-11-24T03:13:40.224Z,11.01
2017-11-24T03:14:50.198Z,11.07
2017-11-24T03:16:00.161Z,11.12
2017-11-24T03:17:09.870Z,10.92
2017-11-24T03:18:19.585Z,10.97
2017-11-24T03:19:29.564Z,10.92
2017-11-24T03:20:39.314Z,11.01
2017-11-24T03:21:49.033Z,11.02
2017-11-24T03:22:59.023Z,11.07
2017-11-24T03:24:08.502Z,11
2017-11-24T03:25:17.949Z,10.95
2017-11-24T03:26:27.932Z,11.1
2017-11-24T03:27:37.391Z,10.94
2017-11-24T03:28:47.370Z,10.97
2017-11-24T03:29:57.358Z,10.95
2017-11-24T03:31:07.372Z,10.97
2017-11-24T03:32:16.826Z,10.92
2017-11-24T03:33:26.525Z,11.04
2017-11-24T03:34:35.966Z,11.01
2017-11-24T03:35:45.835Z,10.97
2017-11-24T03:36:55.543Z,10.87
2017-11-24T03:38:05.269Z,11.08
2017-11-24T03:39:15.122Z,11.01
2017-11-24T03:40:24.583Z,11
2017-11-24T03:41:34.278Z,10.98
2017-11-24T03:42:43.736Z,11.04
2017-11-24T03:43:53.715Z,10.97
2017-11-24T03:45:03.433Z,11.04
2017-11-24T03:46:12.890Z,11.02
2017-11-24T03:47:22.613Z,11.05
2017-11-24T03:48:32.575Z,11.01
2017-11-24T03:49:42.571Z,11.04
2017-11-24T03:50:52.321Z,11.08
2017-11-24T03:52:02.024Z,11.08
2017-11-24T03:53:12.007Z,11.07
2017-11-24T03:54:21.707Z,10.94
2017-11-24T03:55:31.690Z,11.02
2017-11-24T03:56:41.136Z,10.94
2017-11-24T03:57:50.847Z,10.94
2017-11-24T03:59:00.833Z,10.9
2017-11-24T04:00:10.568Z,10.94
2017-11-24T04:01:20.283Z,10.87
2017-11-24T04:02:30.245Z,10.87
2017-11-24T04:03:39.950Z,10.86
2017-11-24T04:04:49.649Z,10.84
2017-11-24T04:05:59.106Z,10.89
2017-11-24T04:07:08.811Z,10.92
2017-11-24T04:08:18.806Z,10.9
2017-11-24T04:09:28.553Z,10.89
2017-11-24T04:10:38.271Z,10.86
2017-11-24T04:11:48.237Z,10.86
2017-11-24T04:12:57.725Z,10.9
2017-11-24T04:14:07.697Z,10.84
2017-11-24T04:15:17.689Z,10.9
2017-11-24T04:16:27.407Z,10.82
2017-11-24T04:17:37.121Z,10.71
2017-11-24T04:18:46.562Z,10.79
2017-11-24T04:19:56.531Z,10.72
2017-11-24T04:21:06.594Z,10.8
2017-11-24T04:22:16.580Z,10.76
2017-11-24T04:23:26.547Z,10.72
2017-11-24T04:24:36.525Z,10.79
2017-11-24T04:25:46.249Z,10.68
2017-11-24T04:26:55.966Z,10.68
2017-11-24T04:28:05.677Z,10.58
2017-11-24T04:29:15.385Z,10.62
2017-11-24T04:30:25.353Z,10.58
2017-11-24T04:31:34.798Z,10.57
2017-11-24T04:32:44.516Z,10.57
2017-11-24T04:33:54.222Z,10.51
2017-11-24T04:35:04.190Z,10.51
2017-11-24T04:36:14.186Z,10.46
2017-11-24T04:37:23.633Z,10.49
2017-11-24T04:38:33.345Z,10.46
2017-11-24T04:39:42.789Z,10.46
2017-11-24T04:40:52.236Z,10.45
2017-11-24T04:42:02.205Z,10.48
2017-11-24T04:43:11.942Z,10.49
2017-11-24T04:44:21.915Z,10.51
2017-11-24T04:45:31.885Z,10.53
2017-11-24T04:46:41.343Z,10.51
2017-11-24T04:47:50.788Z,10.46
2017-11-24T04:49:00.763Z,10.48
2017-11-24T04:50:10.757Z,10.45
2017-11-24T04:51:20.744Z,10.46
2017-11-24T04:52:30.484Z,10.55
2017-11-24T04:53:40.457Z,10.55
2017-11-24T04:54:50.172Z,10.55
2017-11-24T04:55:59.878Z,10.59
2017-11-24T04:57:09.849Z,10.59
2017-11-24T04:58:19.561Z,10.49
2017-11-24T04:59:29.546Z,10.53
2017-11-24T05:00:39.256Z,10.49
2017-11-24T05:01:48.702Z,10.53
2017-11-24T05:02:58.687Z,10.57
2017-11-24T05:04:08.180Z,10.45
2017-11-24T05:05:18.176Z,10.46
2017-11-24T05:06:27.919Z,10.53
2017-11-24T05:07:37.917Z,10.53
2017-11-24T05:08:47.623Z,10.53
2017-11-24T05:09:57.592Z,10.49
2017-11-24T05:11:07.304Z,10.53
2017-11-24T05:12:17.279Z,10.57
2017-11-24T05:13:27.251Z,10.55
2017-11-24T05:14:37.236Z,10.49
2017-11-24T05:15:46.947Z,10.51
2017-11-24T05:16:56.653Z,10.57
2017-11-24T05:18:06.355Z,10.57
2017-11-24T05:19:16.322Z,10.49
2017-11-24T05:20:26.041Z,10.49
2017-11-24T05:21:35.745Z,10.53
2017-11-24T05:22:45.720Z,10.53
2017-11-24T05:23:55.429Z,10.55
2017-11-24T05:25:04.608Z,10.55
2017-11-24T05:26:14.588Z,10.46
2017-11-24T05:27:24.555Z,10.55
2017-11-24T05:28:34.258Z,10.51
2017-11-24T05:29:44.255Z,10.57
2017-11-24T05:30:54.273Z,10.42
2017-11-24T05:32:03.994Z,10.45
2017-11-24T05:33:13.999Z,10.46
2017-11-24T05:34:23.700Z,10.48
2017-11-24T05:35:32.907Z,10.41
2017-11-24T05:36:42.358Z,10.42
2017-11-24T05:37:52.337Z,10.49
2017-11-24T05:39:02.043Z,10.42
2017-11-24T05:40:11.508Z,10.39
2017-11-24T05:41:21.229Z,10.38
2017-11-24T05:42:30.936Z,10.43
2017-11-24T05:43:40.377Z,10.36
2017-11-24T05:44:49.819Z,10.39
2017-11-24T05:45:59.793Z,10.34
2017-11-24T05:47:09.768Z,10.33
2017-11-24T05:48:19.754Z,10.27
2017-11-24T05:49:29.218Z,10.23
2017-11-24T05:50:39.186Z,10.21
2017-11-24T05:51:48.907Z,10.18
2017-11-24T05:52:58.880Z,10.3
2017-11-24T05:54:08.834Z,10.3
2017-11-24T05:55:18.816Z,10.28
2017-11-24T05:56:28.798Z,10.15
2017-11-24T05:57:38.516Z,10.3
2017-11-24T05:58:47.995Z,10.34
2017-11-24T05:59:57.952Z,10.3
2017-11-24T06:01:07.663Z,10.42
2017-11-24T06:02:17.638Z,10.3
2017-11-24T06:03:27.351Z,10.28
2017-11-24T06:04:37.071Z,10.34
2017-11-24T06:05:46.788Z,10.42
2017-11-24T06:06:56.756Z,10.34
2017-11-24T06:08:06.471Z,10.33
2017-11-24T06:09:16.458Z,10.38
2017-11-24T06:10:26.418Z,10.36
2017-11-24T06:11:36.426Z,10.42
2017-11-24T06:12:46.390Z,10.39
2017-11-24T06:13:55.849Z,10.45
2017-11-24T06:15:05.576Z,10.41
2017-11-24T06:16:15.292Z,10.38
2017-11-24T06:17:25.290Z,10.45
2017-11-24T06:18:35.272Z,10.45
2017-11-24T06:19:44.972Z,10.41
2017-11-24T06:20:54.937Z,10.46
2017-11-24T06:22:04.655Z,10.43
2017-11-24T06:23:14.363Z,10.42
2017-11-24T06:24:24.105Z,10.49
2017-11-24T06:25:33.817Z,10.49
2017-11-24T06:26:43.530Z,10.34
2017-11-24T06:27:53.495Z,10.41
2017-11-24T06:29:03.219Z,10.46
2017-11-24T06:30:13.218Z,10.39
2017-11-24T06:31:23.232Z,10.39
2017-11-24T06:32:33.223Z,10.42
2017-11-24T06:33:42.944Z,10.42
2017-11-24T06:34:52.925Z,10.38
2017-11-24T06:36:02.899Z,10.45
2017-11-24T06:37:12.621Z,10.43
2017-11-24T06:38:22.584Z,10.53
2017-11-24T06:39:32.311Z,10.49
2017-11-24T06:40:42.309Z,10.46
2017-11-24T06:41:52.061Z,10.42
2017-11-24T06:43:01.764Z,10.48
2017-11-24T06:44:11.736Z,10.57
2017-11-24T06:45:21.473Z,10.61
2017-11-24T06:46:31.457Z,10.55
2017-11-24T06:47:40.905Z,10.51
2017-11-24T06:48:50.352Z,10.51
2017-11-24T06:50:00.061Z,10.68
2017-11-24T06:51:10.048Z,10.59
2017-11-24T06:52:20.038Z,10.64
2017-11-24T06:53:30.011Z,10.65
2017-11-24T06:54:39.747Z,10.65
2017-11-24T06:55:49.718Z,10.71
2017-11-24T06:56:59.696Z,10.69
2017-11-24T06:58:09.747Z,10.68
2017-11-24T06:59:19.205Z,10.71
2017-11-24T07:00:29.206Z,10.83
2017-11-24T07:01:38.655Z,10.77
2017-11-24T07:02:48.357Z,10.79
2017-11-24T07:03:57.809Z,10.75
2017-11-24T07:05:07.526Z,10.76
2017-11-24T07:06:17.520Z,10.77
2017-11-24T07:07:27.243Z,10.72
2017-11-24T07:08:36.960Z,10.76
2017-11-24T07:09:46.948Z,10.77
2017-11-24T07:10:56.945Z,10.8
2017-11-24T07:12:06.986Z,10.79
2017-11-24T07:13:16.954Z,10.87
2017-11-24T07:14:26.662Z,10.83
2017-11-24T07:15:36.629Z,10.87
2017-11-24T07:16:46.338Z,10.89
2017-11-24T07:17:56.319Z,10.9
2017-11-24T07:19:06.061Z,10.86
2017-11-24T07:20:15.795Z,10.9
2017-11-24T07:21:25.544Z,10.87
2017-11-24T07:22:35.534Z,10.9
2017-11-24T07:23:44.991Z,10.9
2017-11-24T07:24:54.719Z,10.94
2017-11-24T07:26:04.416Z,10.95
2017-11-24T07:27:14.382Z,10.95
2017-11-24T07:28:24.110Z,10.97
2017-11-24T07:29:33.840Z,11.05
2017-11-24T07:30:43.809Z,11.01
2017-11-24T07:31:53.791Z,10.97
2017-11-24T07:33:03.239Z,10.97
2017-11-24T07:34:12.945Z,10.95
2017-11-24T07:35:22.660Z,10.95
2017-11-24T07:36:32.388Z,10.98
2017-11-24T07:37:42.121Z,10.9
2017-11-24T07:38:51.835Z,11.07
2017-11-24T07:40:01.289Z,10.95
2017-11-24T07:41:11.022Z,11
2017-11-24T07:42:21.070Z,10.97
2017-11-24T07:43:30.781Z,10.97
2017-11-24T07:44:40.500Z,11.01
2017-11-24T07:45:49.955Z,10.97
2017-11-24T07:46:59.926Z,10.94
2017-11-24T07:48:09.384Z,11.1
2017-11-24T07:49:18.560Z,11.08
2017-11-24T07:50:28.013Z,11.08
2017-11-24T07:51:37.717Z,11.08
2017-11-24T07:52:47.181Z,11.08
2017-11-24T07:53:56.634Z,11.04
2017-11-24T07:55:06.670Z,11.08
2017-11-24T07:56:16.124Z,11.12
2017-11-24T07:57:26.120Z,11.13
2017-11-24T07:58:35.835Z,11.08
2017-11-24T07:59:45.810Z,11.05
2017-11-24T08:00:55.537Z,11.19
2017-11-24T08:02:05.524Z,11.16
2017-11-24T08:03:15.227Z,11.16
2017-11-24T08:04:24.966Z,11.13
2017-11-24T08:05:34.715Z,11.08
2017-11-24T08:06:44.450Z,11.13
2017-11-24T08:07:54.681Z,11.08
2017-11-24T08:09:04.920Z,11.12
2017-11-24T08:10:14.897Z,11.13
2017-11-24T08:11:24.628Z,11.12
2017-11-24T08:12:34.072Z,11.05
2017-11-24T08:13:44.037Z,11.18
2017-11-24T08:14:54.001Z,11.15
2017-11-24T08:16:04.034Z,11.13
2017-11-24T08:17:13.756Z,11.19
2017-11-24T08:18:23.532Z,11.15
2017-11-24T08:19:33.265Z,11.1
2017-11-24T08:20:43.267Z,11.13
2017-11-24T08:21:53.254Z,11.13
2017-11-24T08:23:02.983Z,11.16
2017-11-24T08:24:12.707Z,11.12
2017-11-24T08:25:22.717Z,11.1
2017-11-24T08:26:32.706Z,11.18
2017-11-24T08:27:42.424Z,11.16
2017-11-24T08:28:52.425Z,11.23
2017-11-24T08:30:02.150Z,11.2
2017-11-24T08:31:11.884Z,11.13
2017-11-24T08:32:21.854Z,11.22
2017-11-24T08:33:31.577Z,11.2
2017-11-24T08:34:41.366Z,11.19
2017-11-24T08:35:51.346Z,11.16
2017-11-24T08:37:01.071Z,11.25
2017-11-24T08:38:10.520Z,11.18
2017-11-24T08:39:20.274Z,11.15
2017-11-24T08:40:30.019Z,11.2
2017-11-24T08:41:39.213Z,11.18
2017-11-24T08:42:48.926Z,11.22
2017-11-24T08:43:58.927Z,11.2
2017-11-24T08:45:08.423Z,11.26
2017-11-24T08:46:18.149Z,11.31
2017-11-24T08:47:27.857Z,11.33
2017-11-24T08:48:37.847Z,11.33
2017-11-24T08:49:47.562Z,11.4
2017-11-24T08:50:57.320Z,11.4
2017-11-24T08:52:07.123Z,11.38
2017-11-24T08:53:17.129Z,11.4
2017-11-24T08:54:26.852Z,11.51
2017-11-24T08:55:36.304Z,11.35
2017-11-24T08:56:46.276Z,11.45
2017-11-24T08:57:56.000Z,11.44
2017-11-24T08:59:05.709Z,11.48
2017-11-24T09:00:15.432Z,11.53
2017-11-24T09:01:25.412Z,11.59
2017-11-24T09:02:35.587Z,11.52
2017-11-24T09:03:45.332Z,11.6
2017-11-24T09:04:55.343Z,11.68
2017-11-24T09:06:05.062Z,11.7
2017-11-24T09:07:14.773Z,11.8
2017-11-24T09:08:24.813Z,11.76
2017-11-24T09:09:34.791Z,11.95
2017-11-24T09:10:44.517Z,11.93
2017-11-24T09:11:54.225Z,11.89
2017-11-24T09:13:04.243Z,11.91
2017-11-24T09:14:14.229Z,11.93
2017-11-24T09:15:23.986Z,11.93
2017-11-24T09:16:33.734Z,12
2017-11-24T09:17:43.189Z,12.02
2017-11-24T09:18:52.636Z,12.05
2017-11-24T09:20:02.612Z,12
2017-11-24T09:21:12.328Z,12
2017-11-24T09:22:22.310Z,12.12
2017-11-24T09:23:32.017Z,12.05
2017-11-24T09:24:41.749Z,12.08
2017-11-24T09:25:51.737Z,12.11
2017-11-24T09:27:01.478Z,12.2
2017-11-24T09:28:10.941Z,12.25
2017-11-24T09:29:20.913Z,12.17
2017-11-24T09:30:30.890Z,12.3
2017-11-24T09:31:40.918Z,12.15
2017-11-24T09:32:50.695Z,12.28
2017-11-24T09:34:00.403Z,12.36
2017-11-24T09:35:10.406Z,12.44
2017-11-24T09:36:20.390Z,12.54
2017-11-24T09:37:30.104Z,12.63
2017-11-24T09:38:40.098Z,12.81
2017-11-24T09:39:49.848Z,12.93
2017-11-24T09:40:59.419Z,13.16
2017-11-24T09:42:09.151Z,13.19
2017-11-24T09:43:18.605Z,13.27
2017-11-24T09:44:28.604Z,13.39
2017-11-24T09:45:38.350Z,13.42
2017-11-24T09:46:48.079Z,13.42
2017-11-24T09:47:58.070Z,13.39
2017-11-24T09:49:07.549Z,13.31
2017-11-24T09:50:17.013Z,13.33
2017-11-24T09:51:25.951Z,13.42
2017-11-24T09:52:35.951Z,13.4
2017-11-24T09:53:45.940Z,13.42
2017-11-24T09:54:55.938Z,13.43
2017-11-24T09:56:05.667Z,13.43
2017-11-24T09:57:15.125Z,13.46
2017-11-24T09:58:24.592Z,13.3
2017-11-24T09:59:34.419Z,13.36
2017-11-24T10:00:43.875Z,13.45
2017-11-24T10:01:53.849Z,13.39
2017-11-24T10:03:03.592Z,13.37
2017-11-24T10:04:13.600Z,13.42
2017-11-24T10:05:23.073Z,13.42
2017-11-24T10:06:33.085Z,13.54
2017-11-24T10:07:42.541Z,13.65
2017-11-24T10:08:52.521Z,13.89
2017-11-24T10:10:02.508Z,13.89
2017-11-24T10:11:12.502Z,13.89
2017-11-24T10:12:22.510Z,13.87
2017-11-24T10:13:32.485Z,13.95
2017-11-24T10:14:42.195Z,13.87
2017-11-24T10:15:52.186Z,13.95
2017-11-24T10:17:01.938Z,13.98
2017-11-24T10:18:11.917Z,14.03
2017-11-24T10:19:21.375Z,13.95
2017-11-24T10:20:31.355Z,13.97
2017-11-24T10:21:41.080Z,14
2017-11-24T10:22:50.808Z,14.01
2017-11-24T10:24:00.019Z,14.11
2017-11-24T10:25:09.825Z,14.03
2017-11-24T10:26:19.337Z,14.07
2017-11-24T10:27:28.793Z,14.08
2017-11-24T10:28:38.506Z,14.13
2017-11-24T10:29:48.536Z,14.28
2017-11-24T10:30:58.254Z,14.28
2017-11-24T10:32:07.717Z,14.51
2017-11-24T10:33:16.918Z,14.55
2017-11-24T10:34:26.661Z,14.79
2017-11-24T10:35:36.659Z,14.92
2017-11-24T10:36:46.626Z,14.99
2017-11-24T10:37:56.378Z,15.15
2017-11-24T10:39:06.125Z,15.26
2017-11-24T10:40:15.850Z,15.35
2017-11-24T10:41:25.586Z,15.35
2017-11-24T10:42:35.574Z,15.26
2017-11-24T10:43:45.295Z,15.18
2017-11-24T10:44:54.770Z,15.18
2017-11-24T10:46:04.495Z,14.99
2017-11-24T10:47:14.248Z,15.07
2017-11-24T10:48:24.244Z,15.02
2017-11-24T10:49:33.957Z,15.07
2017-11-24T10:50:43.686Z,14.99
2017-11-24T10:51:53.490Z,14.97
2017-11-24T10:53:03.470Z,14.99
2017-11-24T10:54:12.955Z,14.97
2017-11-24T10:55:22.969Z,14.96
2017-11-24T10:56:32.699Z,15.02
2017-11-24T10:57:42.518Z,15.02
2017-11-24T10:58:51.980Z,14.99
2017-11-24T11:00:01.449Z,14.99
2017-11-24T11:01:11.482Z,15.05
2017-11-24T11:02:21.529Z,14.99
2017-11-24T11:03:31.526Z,15
2017-11-24T11:04:41.039Z,15.02
2017-11-24T11:05:51.021Z,14.96
2017-11-24T11:07:00.744Z,15.02
2017-11-24T11:08:10.213Z,14.94
2017-11-24T11:09:20.205Z,15.15
2017-11-24T11:10:29.946Z,15.11
2017-11-24T11:11:39.398Z,15.1
2017-11-24T11:12:48.872Z,15.14
2017-11-24T11:13:58.867Z,15.05
2017-11-24T11:15:08.877Z,15.12
2017-11-24T11:16:18.604Z,15.14
2017-11-24T11:17:28.594Z,15.12
2017-11-24T11:18:38.622Z,15.04
2017-11-24T11:19:48.675Z,15.12
2017-11-24T11:20:58.701Z,15.12
2017-11-24T11:22:08.185Z,15.04
2017-11-24T11:23:17.646Z,15.11
2017-11-24T11:24:27.627Z,15.02
2017-11-24T11:25:37.360Z,15.07
2017-11-24T11:26:47.100Z,14.99
2017-11-24T11:27:57.097Z,14.97
2017-11-24T11:29:07.085Z,15
2017-11-24T11:30:16.533Z,14.93
2017-11-24T11:31:25.999Z,15.04
2017-11-24T11:32:36.004Z,15.04
2017-11-24T11:33:45.450Z,14.92
2017-11-24T11:34:55.171Z,15.05
2017-11-24T11:36:04.903Z,14.99
2017-11-24T11:37:14.362Z,15.02
2017-11-24T11:38:24.399Z,15.05
2017-11-24T11:39:34.418Z,15.12
2017-11-24T11:40:44.402Z,15.1
2017-11-24T11:41:54.388Z,15.08
2017-11-24T11:43:04.366Z,15.12
2017-11-24T11:44:14.093Z,15.23
2017-11-24T11:45:23.565Z,15.17
2017-11-24T11:46:33.036Z,15.23
2017-11-24T11:47:42.822Z,15.17
2017-11-24T11:48:52.844Z,15.29
2017-11-24T11:50:02.568Z,15.39
2017-11-24T11:51:12.573Z,15.33
2017-11-24T11:52:22.302Z,15.32
2017-11-24T11:53:32.020Z,15.23
2017-11-24T11:54:41.746Z,15.17
2017-11-24T11:55:51.466Z,15.17
2017-11-24T11:57:00.910Z,15.17
2017-11-24T11:58:10.906Z,15.22
2017-11-24T11:59:20.904Z,15.17
2017-11-24T12:00:30.407Z,15.14
2017-11-24T12:01:40.197Z,15.04
2017-11-24T12:02:49.718Z,14.97
2017-11-24T12:03:59.276Z,15.02
2017-11-24T12:05:09.395Z,15.02
2017-11-24T12:06:19.487Z,14.96
2017-11-24T12:07:29.349Z,15
2017-11-24T12:08:39.190Z,15.02
2017-11-24T12:09:49.070Z,14.97
2017-11-24T12:10:58.685Z,14.99
2017-11-24T12:12:08.516Z,14.89
2017-11-24T12:13:18.616Z,14.97
2017-11-24T12:14:28.446Z,14.9
2017-11-24T12:15:38.207Z,14.92
2017-11-24T12:16:48.504Z,14.93
2017-11-24T12:17:58.282Z,14.87
2017-11-24T12:19:08.308Z,14.86
2017-11-24T12:20:17.772Z,14.86
2017-11-24T12:21:27.502Z,14.9
2017-11-24T12:22:37.556Z,14.92
2017-11-24T12:23:47.572Z,14.93
2017-11-24T12:24:57.056Z,14.9
2017-11-24T12:26:07.047Z,14.89
2017-11-24T12:27:16.776Z,14.93
2017-11-24T12:28:26.499Z,14.87
2017-11-24T12:29:35.980Z,14.89
2017-11-24T12:30:45.710Z,14.99
2017-11-24T12:31:55.709Z,14.94
2017-11-24T12:33:05.413Z,14.9
2017-11-24T12:34:15.127Z,14.89
2017-11-24T12:35:24.316Z,14.92
2017-11-24T12:36:33.776Z,14.87
2017-11-24T12:37:43.490Z,14.92
2017-11-24T12:38:52.677Z,14.93
2017-11-24T12:40:02.648Z,14.99
2017-11-24T12:41:12.645Z,14.9
2017-11-24T12:42:22.144Z,14.92
2017-11-24T12:43:32.255Z,14.89
2017-11-24T12:44:41.822Z,14.82
2017-11-24T12:45:51.977Z,14.92
2017-11-24T12:47:02.078Z,14.92
2017-11-24T12:48:11.983Z,14.92
2017-11-24T12:49:22.079Z,14.86
2017-11-24T12:50:31.906Z,14.87
2017-11-24T12:51:41.990Z,14.86
2017-11-24T12:52:51.803Z,14.79
2017-11-24T12:54:01.928Z,14.82
2017-11-24T12:55:11.760Z,14.89
2017-11-24T12:56:22.106Z,14.86
2017-11-24T12:57:32.075Z,14.81
2017-11-24T12:58:42.052Z,14.82
2017-11-24T12:59:52.033Z,14.78
2017-11-24T13:01:02.022Z,14.78
2017-11-24T13:02:11.785Z,14.82
2017-11-24T13:03:21.782Z,14.74
2017-11-24T13:04:31.772Z,14.77
2017-11-24T13:05:41.755Z,14.74
2017-11-24T13:06:51.493Z,14.7
2017-11-24T13:08:01.217Z,14.7
2017-11-24T13:09:11.239Z,14.67
2017-11-24T13:10:21.221Z,14.63
2017-11-24T13:11:31.191Z,14.66
2017-11-24T13:12:41.192Z,14.66
2017-11-24T13:13:50.906Z,14.61
2017-11-24T13:15:00.742Z,14.44
2017-11-24T13:16:10.925Z,14.11
2017-11-24T13:17:20.667Z,13.98
2017-11-24T13:18:30.785Z,13.62
2017-11-24T13:19:40.249Z,13.26
2017-11-24T13:20:50.205Z,13.16
2017-11-24T13:21:59.925Z,12.88
2017-11-24T13:23:09.678Z,12.81
2017-11-24T13:24:19.401Z,12.9
2017-11-24T13:25:29.108Z,12.81
2017-11-24T13:26:39.107Z,12.75
2017-11-24T13:27:49.105Z,12.72
2017-11-24T13:28:59.094Z,12.54
2017-11-24T13:30:08.300Z,12.48
2017-11-24T13:31:17.758Z,12.4
2017-11-24T13:32:27.466Z,12.4
2017-11-24T13:33:37.180Z,12.45
2017-11-24T13:34:47.183Z,12.26
2017-11-24T13:35:57.160Z,12.26
2017-11-24T13:37:06.892Z,12.14
2017-11-24T13:38:16.087Z,12.18
2017-11-24T13:39:25.817Z,12.1
2017-11-24T13:40:35.537Z,12.08
2017-11-24T13:41:45.260Z,11.97
2017-11-24T13:42:54.974Z,11.93
2017-11-24T13:44:04.732Z,11.95
2017-11-24T13:45:14.486Z,11.85
2017-11-24T13:46:23.690Z,11.78
2017-11-24T13:47:33.422Z,11.77
2017-11-24T13:48:42.885Z,11.73
2017-11-24T13:49:52.864Z,11.65
2017-11-24T13:51:03.107Z,11.62
2017-11-24T13:52:13.148Z,11.53
2017-11-24T13:53:23.165Z,11.52
2017-11-24T13:54:33.193Z,11.59
2017-11-24T13:55:42.915Z,11.56
2017-11-24T13:56:52.895Z,11.52
2017-11-24T13:58:02.634Z,11.49
2017-11-24T13:59:12.083Z,11.59
2017-11-24T14:00:21.803Z,11.52
2017-11-24T14:01:31.778Z,11.45
2017-11-24T14:02:41.800Z,11.44
2017-11-24T14:03:51.570Z,11.43
2017-11-24T14:05:01.301Z,11.37
2017-11-24T14:06:11.030Z,11.27
2017-11-24T14:07:20.540Z,11.19
2017-11-24T14:08:30.556Z,11.23
2017-11-24T14:09:40.279Z,11.1
2017-11-24T14:10:49.983Z,11.15
2017-11-24T14:11:59.699Z,11.13
2017-11-24T14:13:09.415Z,11.08
2017-11-24T14:14:18.872Z,11.05
2017-11-24T14:15:28.863Z,11.07
2017-11-24T14:16:38.836Z,10.98
2017-11-24T14:17:48.317Z,10.9
2017-11-24T14:18:58.069Z,10.94
2017-11-24T14:20:07.811Z,10.87
2017-11-24T14:21:17.531Z,10.87
2017-11-24T14:22:27.537Z,10.76
2017-11-24T14:23:37.478Z,10.72
2017-11-24T14:24:47.224Z,10.72
2017-11-24T14:25:57.241Z,10.79
2017-11-24T14:27:07.279Z,10.68
2017-11-24T14:28:17.072Z,10.57
2017-11-24T14:29:26.530Z,10.51
2017-11-24T14:30:36.249Z,10.58
2017-11-24T14:31:45.975Z,10.46
2017-11-24T14:32:55.967Z,10.41
2017-11-24T14:34:05.526Z,10.42
2017-11-24T14:35:15.518Z,10.38
2017-11-24T14:36:25.503Z,10.38
2017-11-24T14:37:35.248Z,10.27
2017-11-24T14:38:44.725Z,10.36
2017-11-24T14:39:54.480Z,10.25
2017-11-24T14:41:04.478Z,10.28
2017-11-24T14:42:14.207Z,10.2
2017-11-24T14:43:23.676Z,10.1
2017-11-24T14:44:33.411Z,10.09
2017-11-24T14:45:43.386Z,10.1
2017-11-24T14:46:52.885Z,10
2017-11-24T14:48:02.599Z,9.99
2017-11-24T14:49:12.395Z,9.95
2017-11-24T14:50:22.377Z,10
2017-11-24T14:51:32.333Z,9.84
2017-11-24T14:52:42.313Z,9.97
2017-11-24T14:53:52.338Z,9.95
2017-11-24T14:55:02.067Z,9.92
2017-11-24T14:56:11.806Z,9.87
2017-11-24T14:57:21.810Z,9.88
2017-11-24T14:58:31.255Z,9.88
2017-11-24T14:59:40.973Z,9.92
2017-11-24T15:00:50.679Z,9.87
2017-11-24T15:02:00.408Z,9.85
2017-11-24T15:03:10.170Z,9.82
2017-11-24T15:04:19.674Z,9.87
2017-11-24T15:05:29.435Z,9.84
2017-11-24T15:06:39.155Z,9.67